Time;durP1;ratioP1;P1;durP2;ratioP2;P2;SDS_P1;SDS_P2;PMS_P1;PMS_P2;Temp;Humidity;BMP_temperature;BMP_pressure;BME280_temperature;BME280_humidity;BME280_pressure;Samples;Min_cycle;Max_cycle;Signal;HPM_P1;HPM_P2
2023/08/30 00:01:16;;;;;;;11.10;7.37;;;;;;;11.32;100.00;100721.16;4938559;29;20051;-91
2023/08/30 00:03:42;;;;;;;9.87;7.10;;;;;;;11.30;100.00;100709.69;4921674;29;20427;-91
2023/08/30 00:06:12;;;;;;;11.10;7.50;;;;;;;11.30;100.00;100710.50;4938169;29;20111;-91
2023/08/30 00:08:40;;;;;;;8.82;7.13;;;;;;;11.30;100.00;100706.97;4938524;29;20036;-91
2023/08/30 00:11:06;;;;;;;11.27;7.35;;;;;;;11.30;100.00;100706.97;4938016;29;20034;-91
2023/08/30 00:13:35;;;;;;;12.90;7.90;;;;;;;11.30;100.00;100713.22;4905434;29;20043;-91
2023/08/30 00:16:04;;;;;;;11.23;7.30;;;;;;;11.26;100.00;100703.84;4921456;29;20122;-91
2023/08/30 00:18:38;;;;;;;10.07;7.25;;;;;;;11.27;100.00;100708.25;4938777;29;20028;-90
2023/08/30 00:21:03;;;;;;;10.10;7.18;;;;;;;11.25;100.00;100699.50;4937741;29;20059;-91
2023/08/30 00:23:32;;;;;;;10.27;7.07;;;;;;;11.25;100.00;100699.50;4938102;29;20404;-91
2023/08/30 00:25:57;;;;;;;11.20;7.35;;;;;;;11.24;100.00;100703.25;4920682;29;20071;-91
2023/08/30 00:28:23;;;;;;;10.67;7.67;;;;;;;11.25;100.00;100696.78;4920908;29;20031;-91
2023/08/30 00:30:56;;;;;;;10.20;7.50;;;;;;;11.26;100.00;100700.31;4921057;29;20031;-91
2023/08/30 00:33:22;;;;;;;11.65;7.53;;;;;;;11.24;100.00;100697.81;4921240;29;20486;-91
2023/08/30 00:35:57;;;;;;;9.98;7.22;;;;;;;11.22;100.00;100692.63;4920622;29;20034;-90
2023/08/30 00:38:34;;;;;;;10.73;7.10;;;;;;;11.22;100.00;100692.63;4937801;29;20027;-91
2023/08/30 00:41:05;;;;;;;9.75;6.72;;;;;;;11.22;100.00;100700.75;4921040;29;20043;-91
2023/08/30 00:43:30;;;;;;;9.50;7.55;;;;;;;11.18;100.00;100687.88;4905657;29;20047;-91
2023/08/30 00:45:57;;;;;;;11.07;7.00;;;;;;;11.19;100.00;100686.78;4920763;29;20111;-90
2023/08/30 00:48:24;;;;;;;9.85;7.47;;;;;;;11.18;100.00;100685.97;4937899;29;20035;-91
2023/08/30 00:50:52;;;;;;;9.98;7.65;;;;;;;11.15;100.00;100675.56;4905107;29;20048;-90
2023/08/30 00:53:20;;;;;;;9.25;6.97;;;;;;;11.11;100.00;100673.50;4920458;29;20119;-91
2023/08/30 00:55:46;;;;;;;12.27;7.32;;;;;;;11.09;100.00;100673.75;4919954;29;20506;-91
2023/08/30 00:58:17;;;;;;;9.57;7.07;;;;;;;11.10;100.00;100678.13;4920791;29;20035;-90
2023/08/30 01:00:42;;;;;;;11.23;6.53;;;;;;;11.08;100.00;100671.25;4920099;29;20510;-90
2023/08/30 01:03:08;;;;;;;9.27;6.83;;;;;;;11.04;100.00;100663.56;4920591;29;20059;-90
2023/08/30 01:05:43;;;;;;;7.73;6.40;;;;;;;11.05;100.00;100667.91;4919939;29;20114;-90
2023/08/30 01:08:11;;;;;;;10.32;6.78;;;;;;;11.02;100.00;100662.94;4905063;29;20036;-91
2023/08/30 01:11:05;;;;;;;15.27;6.80;;;;;;;11.03;100.00;100671.91;4937069;29;20467;-91
2023/08/30 01:13:46;;;;;;;12.98;7.15;;;;;;;11.00;100.00;100662.31;4919601;29;20047;-91
2023/08/30 01:16:12;;;;;;;9.93;6.70;;;;;;;10.99;100.00;100659.84;4920146;29;20083;-90
2023/08/30 01:18:40;;;;;;;13.93;6.73;;;;;;;10.97;100.00;100660.06;4937126;29;20043;-91
2023/08/30 01:21:19;;;;;;;10.55;7.25;;;;;;;10.98;100.00;100655.44;4920091;29;20122;-90
2023/08/30 01:23:55;;;;;;;10.77;7.15;;;;;;;10.97;100.00;100660.06;4920140;29;20039;-91
2023/08/30 01:26:32;;;;;;;11.85;6.85;;;;;;;10.95;100.00;100655.91;4936518;29;20038;-91
2023/08/30 01:29:04;;;;;;;9.65;6.45;;;;;;;10.93;100.00;100649.88;4920278;29;20039;-90
2023/08/30 01:31:36;;;;;;;11.05;6.68;;;;;;;10.90;100.00;100651.16;4936997;29;20028;-91
2023/08/30 01:34:03;;;;;;;11.15;6.93;;;;;;;10.88;100.00;100651.38;4936817;29;20032;-91
2023/08/30 01:36:33;;;;;;;9.35;6.88;;;;;;;10.84;100.00;100660.19;4919591;29;20032;-90
2023/08/30 01:39:04;;;;;;;11.15;6.63;;;;;;;10.83;100.00;100655.78;4919875;29;20028;-91
2023/08/30 01:41:30;;;;;;;9.05;6.28;;;;;;;10.80;100.00;100656.25;4919726;29;20036;-90
2023/08/30 01:43:59;;;;;;;10.52;6.95;;;;;;;10.77;100.00;100659.41;4904527;29;20040;-90
2023/08/30 01:46:24;;;;;;;9.73;6.80;;;;;;;10.70;100.00;100657.56;4919822;29;20031;-90
2023/08/30 01:48:51;;;;;;;12.47;7.13;;;;;;;10.65;100.00;100649.25;4919710;29;20291;-90
2023/08/30 01:51:19;;;;;;;9.70;6.55;;;;;;;10.63;100.00;100656.78;4919565;29;20563;-89
2023/08/30 01:53:51;;;;;;;10.13;6.32;;;;;;;10.57;100.00;100651.41;4903900;29;20403;-90
2023/08/30 01:56:17;;;;;;;11.10;6.72;;;;;;;10.57;100.00;100649.53;4936107;29;20039;-91
2023/08/30 01:58:45;;;;;;;10.20;6.40;;;;;;;10.53;100.00;100649.13;4936425;29;20387;-90
2023/08/30 02:01:11;;;;;;;8.98;6.50;;;;;;;10.51;100.00;100650.41;4919229;29;20077;-91
2023/08/30 02:03:47;;;;;;;;;;;;;;;;;;;;;
2023/08/30 02:06:18;;;;;;;9.82;6.53;;;;;;;10.46;100.00;100650.25;4935872;29;20046;-90
2023/08/30 02:08:59;;;;;;;11.40;6.30;;;;;;;10.42;100.00;100646.28;4919307;29;20395;-90
2023/08/30 02:11:30;;;;;;;9.93;6.43;;;;;;;10.41;100.00;100648.19;4918404;29;20035;-90
2023/08/30 02:13:59;;;;;;;13.55;7.15;;;;;;;10.42;100.00;100651.72;4918535;29;20056;-90
2023/08/30 02:16:28;;;;;;;12.73;7.07;;;;;;;10.42;100.00;100641.69;4918516;29;20047;-91
2023/08/30 02:18:55;;;;;;;11.35;6.55;;;;;;;10.47;100.00;100644.59;4918737;29;20040;-91
2023/08/30 02:21:23;;;;;;;14.57;7.20;;;;;;;10.55;100.00;100640.78;4918519;29;20376;-91
2023/08/30 02:23:53;;;;;;;15.55;7.85;;;;;;;10.61;100.00;100637.16;4934397;29;20044;-91
2023/08/30 02:26:26;;;;;;;15.52;8.43;;;;;;;10.68;100.00;100635.25;4933868;29;20046;-90
2023/08/30 02:28:51;;;;;;;11.43;7.60;;;;;;;10.75;100.00;100628.91;4918248;29;20028;-91
2023/08/30 02:31:17;;;;;;;13.27;8.33;;;;;;;10.83;100.00;100634.91;4918220;29;20038;-90
2023/08/30 02:33:42;;;;;;;14.53;8.03;;;;;;;10.92;100.00;100627.31;4918354;29;20456;-91
2023/08/30 02:36:08;;;;;;;11.68;8.18;;;;;;;11.00;100.00;100629.75;4935483;29;20421;-90
2023/08/30 02:38:45;;;;;;;12.00;8.27;;;;;;;11.04;100.00;100628.25;4918285;29;20027;-91
2023/08/30 02:41:12;;;;;;;12.55;8.07;;;;;;;11.11;100.00;100617.31;4935477;29;20036;-90
2023/08/30 02:43:38;;;;;;;16.93;8.37;;;;;;;11.19;100.00;100616.19;4935230;29;20028;-90
2023/08/30 02:46:07;;;;;;;12.35;8.15;;;;;;;11.25;100.00;100618.03;4921194;29;20031;-90
2023/08/30 02:48:35;;;;;;;12.40;7.80;;;;;;;11.31;100.00;100617.13;4936892;29;20035;-91
2023/08/30 02:51:00;;;;;;;12.13;7.93;;;;;;;11.34;100.00;100615.84;4937464;29;20125;-91
2023/08/30 02:53:26;;;;;;;14.70;8.35;;;;;;;11.43;100.00;100619.06;4921026;29;20123;-91
2023/08/30 02:55:55;;;;;;;13.53;9.00;;;;;;;11.45;100.00;100609.63;4920879;29;20036;-90
2023/08/30 02:58:21;;;;;;;13.65;8.65;;;;;;;11.50;100.00;100607.06;4921404;29;20034;-91
2023/08/30 03:00:49;;;;;;;14.13;8.83;;;;;;;11.55;100.00;100604.50;4905424;29;20411;-90
2023/08/30 03:03:14;;;;;;;13.00;8.55;;;;;;;11.57;100.00;100606.97;4850969;29;1198454;-91
2023/08/30 03:05:42;;;;;;;11.73;8.07;;;;;;;11.59;100.00;100602.16;4921984;29;20074;-91
2023/08/30 03:08:08;;;;;;;13.57;8.77;;;;;;;11.63;100.00;100597.91;4922664;29;20036;-91
2023/08/30 03:10:39;;;;;;;12.67;8.40;;;;;;;11.65;100.00;100611.28;4922316;29;20032;-91
2023/08/30 03:13:10;;;;;;;16.48;8.88;;;;;;;11.64;100.00;100596.03;4939552;29;20127;-91
2023/08/30 03:15:35;;;;;;;13.82;8.57;;;;;;;11.63;100.00;100597.91;4939328;29;20031;-91
2023/08/30 03:18:03;;;;;;;14.40;9.07;;;;;;;11.61;100.00;100586.44;4938001;29;20031;-91
2023/08/30 03:20:32;;;;;;;13.93;8.75;;;;;;;11.61;100.00;100588.34;4922080;29;20475;-91
2023/08/30 03:22:58;;;;;;;12.93;8.15;;;;;;;11.64;100.00;100594.16;4922362;29;20102;-91
2023/08/30 03:25:32;;;;;;;12.88;8.38;;;;;;;11.67;100.00;100596.41;4921593;29;20456;-92
2023/08/30 03:28:00;;;;;;;9.73;7.85;;;;;;;11.66;100.00;100591.19;4922148;29;20032;-91
2023/08/30 03:30:26;;;;;;;12.03;8.30;;;;;;;11.68;100.00;100589.91;4939172;29;20078;-90
2023/08/30 03:32:53;;;;;;;13.48;8.13;;;;;;;11.68;100.00;100580.94;4922027;29;20069;-90
2023/08/30 03:35:21;;;;;;;13.23;8.47;;;;;;;11.70;100.00;100573.38;4921991;29;20039;-91
2023/08/30 03:37:46;;;;;;;21.38;7.55;;;;;;;11.74;100.00;100572.69;4938704;29;20027;-91
2023/08/30 03:40:12;;;;;;;11.27;8.45;;;;;;;11.79;100.00;100574.72;4938859;29;20023;-91
2023/08/30 03:42:43;;;;;;;14.75;8.27;;;;;;;11.79;100.00;100563.03;4938966;29;20038;-91
2023/08/30 03:45:12;;;;;;;12.52;7.78;;;;;;;11.81;100.00;100548.16;4906844;29;20051;-90
2023/08/30 03:47:38;;;;;;;12.23;8.50;;;;;;;11.83;100.00;100540.59;4937593;29;20126;-90
2023/08/30 03:50:04;;;;;;;12.23;8.77;;;;;;;11.88;100.00;100535.25;4921423;29;20464;-90
2023/08/30 03:52:32;;;;;;;13.85;8.32;;;;;;;11.91;100.00;100528.53;4921696;29;20035;-91
2023/08/30 03:55:00;;;;;;;16.27;8.70;;;;;;;11.93;100.00;100523.75;4920854;29;20031;-91
2023/08/30 03:57:28;;;;;;;14.13;9.35;;;;;;;11.96;100.00;100519.72;4920243;29;20035;-91
2023/08/30 03:59:59;;;;;;;15.00;8.87;;;;;;;11.91;100.00;100520.38;4921542;29;20039;-91
2023/08/30 04:02:25;;;;;;;14.85;8.63;;;;;;;11.82;100.00;100519.06;4920932;29;20047;-91
2023/08/30 04:04:56;;;;;;;13.40;9.30;;;;;;;11.74;100.00;100504.75;4937143;29;20040;-91
2023/08/30 04:07:21;;;;;;;15.70;9.82;;;;;;;11.68;100.00;100502.94;4904769;29;20074;-91
2023/08/30 04:09:49;;;;;;;15.95;9.70;;;;;;;11.58;100.00;100502.69;4921108;29;20468;-91
2023/08/30 04:12:17;;;;;;;14.45;9.68;;;;;;;11.53;100.00;100492.50;4938780;29;20043;-91
2023/08/30 04:14:44;;;;;;;15.90;9.95;;;;;;;11.48;100.00;100491.53;4920669;29;20073;-90
2023/08/30 04:17:13;;;;;;;17.25;10.25;;;;;;;11.49;100.00;100499.47;4937953;29;20035;-90
2023/08/30 04:19:41;;;;;;;22.80;11.00;;;;;;;11.49;100.00;100509.50;4921292;29;20032;-91
2023/08/30 04:22:11;;;;;;;15.27;10.18;;;;;;;11.51;100.00;100505.47;4938231;29;20039;-90
2023/08/30 04:24:39;;;;;;;14.80;10.40;;;;;;;11.61;100.00;100507.66;4905858;29;20042;-90
2023/08/30 04:27:05;;;;;;;16.17;10.30;;;;;;;11.67;100.00;100497.75;4904770;29;20039;-90
2023/08/30 04:29:30;;;;;;;14.13;9.83;;;;;;;11.70;100.00;100500.81;4920702;29;20035;-90
2023/08/30 04:31:56;;;;;;;16.85;10.43;;;;;;;11.73;100.00;100499.53;4920868;29;20123;-91
2023/08/30 04:34:22;;;;;;;17.27;10.00;;;;;;;11.80;100.00;100492.13;4937899;29;20020;-90
2023/08/30 04:36:50;;;;;;;13.07;9.98;;;;;;;11.83;100.00;100485.41;4920545;29;20420;-91
2023/08/30 04:39:16;;;;;;;16.37;9.73;;;;;;;11.89;100.00;100482.56;4936654;29;20034;-90
2023/08/30 04:41:41;;;;;;;15.45;10.07;;;;;;;11.94;100.00;100498.19;4936636;29;20031;-90
2023/08/30 04:44:09;;;;;;;16.83;10.37;;;;;;;11.97;100.00;100489.56;4920482;29;20036;-91
2023/08/30 04:46:34;;;;;;;15.98;10.05;;;;;;;12.01;100.00;100479.91;4920792;29;20047;-90
2023/08/30 04:49:03;;;;;;;16.93;10.33;;;;;;;12.04;100.00;100487.59;4920659;29;20136;-90
2023/08/30 04:51:36;;;;;;;14.70;9.35;;;;;;;12.08;100.00;100482.53;4920233;29;20399;-91
2023/08/30 04:54:01;;;;;;;12.77;9.70;;;;;;;12.11;100.00;100480.16;4937560;29;20082;-92
2023/08/30 04:56:27;;;;;;;14.03;9.67;;;;;;;12.18;100.00;100482.78;4937250;29;20126;-90
2023/08/30 04:58:52;;;;;;;15.23;9.23;;;;;;;12.21;100.00;100474.13;4920574;29;20038;-91
2023/08/30 05:01:21;;;;;;;17.73;9.70;;;;;;;12.26;100.00;100476.16;4919960;29;20040;-90
2023/08/30 05:03:46;;;;;;;14.40;9.50;;;;;;;12.25;100.00;100469.88;4920045;29;20059;-90
2023/08/30 05:06:15;;;;;;;20.73;9.68;;;;;;;12.30;100.00;100458.28;4920309;29;20031;-90
2023/08/30 05:08:44;;;;;;;14.63;9.52;;;;;;;12.34;100.00;100461.34;4919906;29;20035;-90
2023/08/30 05:11:09;;;;;;;15.83;9.77;;;;;;;12.35;100.00;100463.84;4920173;29;20036;-90
2023/08/30 05:13:37;;;;;;;14.48;9.68;;;;;;;12.42;100.00;100469.19;4919772;29;20027;-91
2023/08/30 05:16:03;;;;;;;15.03;8.97;;;;;;;12.44;100.00;100465.13;4920661;29;20027;-90
2023/08/30 05:18:31;;;;;;;14.85;9.48;;;;;;;12.45;100.00;100453.19;4937173;29;20125;-90
2023/08/30 05:20:56;;;;;;;16.17;9.93;;;;;;;12.50;100.00;100452.47;4904227;29;20047;-90
2023/08/30 05:23:31;;;;;;;12.87;8.57;;;;;;;12.55;100.00;100446.31;4920279;29;20040;-90
2023/08/30 05:26:00;;;;;;;16.17;8.73;;;;;;;12.56;100.00;100443.38;4919531;29;20028;-90
2023/08/30 05:28:28;;;;;;;12.75;8.65;;;;;;;12.62;100.00;100447.88;4936805;29;20495;-91
2023/08/30 05:30:56;;;;;;;12.88;9.13;;;;;;;12.68;100.00;100451.53;4919940;29;20043;-91
2023/08/30 05:33:22;;;;;;;15.53;9.43;;;;;;;12.74;100.00;100452.44;4935801;29;20039;-91
2023/08/30 05:35:52;;;;;;;13.35;9.40;;;;;;;12.76;100.00;100442.97;4904250;29;20071;-91
2023/08/30 05:38:17;;;;;;;13.33;9.00;;;;;;;12.82;100.00;100446.63;4919793;29;20036;-91
2023/08/30 05:40:50;;;;;;;16.13;9.25;;;;;;;12.90;100.00;100449.00;4935470;29;20388;-91
2023/08/30 05:43:18;;;;;;;13.30;8.93;;;;;;;12.94;100.00;100438.44;4903719;29;20043;-89
2023/08/30 05:45:43;;;;;;;15.07;9.20;;;;;;;13.05;100.00;100439.47;4919485;29;20028;-87
2023/08/30 05:48:11;;;;;;;12.10;9.50;;;;;;;13.12;100.00;100440.16;4935554;29;20058;-88
2023/08/30 05:50:37;;;;;;;13.63;9.43;;;;;;;13.20;100.00;100433.50;4903818;29;20350;-88
2023/08/30 05:53:03;;;;;;;13.77;9.90;;;;;;;13.25;100.00;100428.97;4937286;29;20499;-90
2023/08/30 05:55:32;;;;;;;12.20;8.60;;;;;;;13.28;100.00;100431.22;4936207;29;20031;-90
2023/08/30 05:57:57;;;;;;;13.00;9.10;;;;;;;13.32;100.00;100421.47;4920006;29;20025;-88
2023/08/30 06:00:25;;;;;;;15.47;8.97;;;;;;;13.43;100.00;100427.16;4919325;29;20042;-88
2023/08/30 06:02:51;;;;;;;12.82;9.18;;;;;;;13.50;100.00;100415.03;4902966;29;20056;-87
2023/08/30 06:05:16;;;;;;;11.60;8.70;;;;;;;13.58;100.00;100422.00;4936212;29;20039;-87
2023/08/30 06:07:42;;;;;;;11.27;8.60;;;;;;;13.64;100.00;100426.44;4936249;29;20032;-87
2023/08/30 06:10:08;;;;;;;13.27;9.03;;;;;;;13.69;100.00;100422.97;4936043;29;20035;-87
2023/08/30 06:12:33;;;;;;;11.23;8.20;;;;;;;13.75;100.00;100429.34;4919079;29;20051;-87
2023/08/30 06:14:59;;;;;;;15.20;8.97;;;;;;;13.77;100.00;100427.19;4919134;29;20035;-87
2023/08/30 06:17:24;;;;;;;13.97;8.90;;;;;;;13.71;100.00;100422.72;4903395;29;20034;-86
2023/08/30 06:19:49;;;;;;;13.52;9.05;;;;;;;13.59;100.00;100431.78;4889457;29;20468;-87
2023/08/30 06:22:15;;;;;;;13.17;8.50;;;;;;;13.53;100.00;100412.91;4923815;29;20543;-87
2023/08/30 06:24:41;;;;;;;15.33;8.90;;;;;;;13.51;100.00;100416.69;4939902;29;20045;-87
2023/08/30 06:27:08;;;;;;;12.63;8.30;;;;;;;13.47;100.00;100407.34;4939422;29;20295;-87
2023/08/30 06:29:34;;;;;;;13.23;8.57;;;;;;;13.50;100.00;100414.19;4922951;29;20086;-87
2023/08/30 06:31:59;;;;;;;12.30;8.40;;;;;;;13.53;100.00;100418.34;4891070;29;20480;-87
2023/08/30 06:34:25;;;;;;;11.83;8.33;;;;;;;13.55;100.00;100414.28;4907823;29;20114;-87
2023/08/30 06:36:50;;;;;;;12.47;8.60;;;;;;;13.60;100.00;100419.84;4923296;29;20062;-87
2023/08/30 06:39:17;;;;;;;11.32;8.50;;;;;;;13.63;100.00;100423.97;4906960;29;20059;-87
2023/08/30 06:41:43;;;;;;;14.93;8.93;;;;;;;13.42;100.00;100429.06;4906713;29;20040;-87
2023/08/30 06:44:13;;;;;;;14.27;9.50;;;;;;;13.27;100.00;100434.19;4922966;29;20464;-88
2023/08/30 06:46:39;;;;;;;14.07;9.53;;;;;;;13.07;100.00;100424.53;4923540;29;20032;-86
2023/08/30 06:52:04;;;;;;;17.80;10.48;;;;;;;12.91;100.00;100423.41;4930121;29;20238;-92
2023/08/30 06:54:40;;;;;;;16.85;11.40;;;;;;;12.89;100.00;100424.72;4922773;29;20036;-92
2023/08/30 06:57:08;;;;;;;18.50;11.25;;;;;;;12.75;100.00;100424.97;4906861;29;20039;-91
2023/08/30 06:59:37;;;;;;;17.87;11.07;;;;;;;12.67;100.00;100444.44;4922638;29;20029;-91
2023/08/30 07:02:03;;;;;;;26.98;12.05;;;;;;;12.52;100.00;100425.88;4921472;29;20043;-90
2023/08/30 07:04:32;;;;;;;33.90;12.77;;;;;;;12.44;100.00;100428.94;4939338;29;20114;-90
2023/08/30 07:07:02;;;;;;;26.15;12.93;;;;;;;12.38;100.00;100425.28;4907094;29;20039;-89
2023/08/30 07:09:32;;;;;;;22.98;12.07;;;;;;;12.30;100.00;100420.22;4923064;29;20036;-89
2023/08/30 07:11:58;;;;;;;18.90;11.40;;;;;;;12.27;100.00;100398.94;4922310;29;20122;-89
2023/08/30 07:14:26;;;;;;;20.92;11.48;;;;;;;12.19;100.00;100383.78;4938304;29;20065;-87
2023/08/30 07:16:51;;;;;;;19.52;11.85;;;;;;;12.13;100.00;100392.88;4922306;29;20067;-89
2023/08/30 07:19:17;;;;;;;25.70;12.37;;;;;;;12.16;100.00;100384.25;4921914;29;20055;-89
2023/08/30 07:21:43;;;;;;;21.33;11.80;;;;;;;12.13;100.00;100390.16;4938905;29;20038;-88
2023/08/30 07:24:08;;;;;;;25.92;13.40;;;;;;;12.11;100.00;100381.44;4939116;29;20035;-88
2023/08/30 07:26:34;;;;;;;24.50;12.30;;;;;;;12.20;100.00;100379.19;4921940;29;20031;-87
2023/08/30 07:29:06;;;;;;;22.70;12.10;;;;;;;12.21;100.00;100384.38;4921737;29;20042;-88
2023/08/30 07:31:33;;;;;;;21.65;10.63;;;;;;;12.18;100.00;100386.72;4936891;29;20032;-88
2023/08/30 07:33:59;;;;;;;18.08;9.90;;;;;;;12.16;100.00;100376.09;4921943;29;20147;-87
2023/08/30 07:36:28;;;;;;;19.67;9.55;;;;;;;12.16;100.00;100372.56;4921431;29;20035;-87
2023/08/30 07:38:56;;;;;;;17.52;9.45;;;;;;;12.20;100.00;100374.56;4938809;29;20126;-87
2023/08/30 07:41:21;;;;;;;15.00;8.77;;;;;;;12.22;100.00;100375.16;4921122;29;20050;-89
2023/08/30 07:43:47;;;;;;;13.20;8.60;;;;;;;12.23;100.00;100371.38;4920987;29;20476;-88
2023/08/30 07:46:15;;;;;;;19.73;9.57;;;;;;;12.28;100.00;100371.50;4921545;29;20031;-88
2023/08/30 07:48:42;;;;;;;16.57;9.87;;;;;;;12.30;100.00;100371.25;4921505;29;20272;-88
2023/08/30 07:51:19;;;;;;;15.68;9.68;;;;;;;12.29;100.00;100366.88;4938591;29;20126;-87
2023/08/30 07:53:45;;;;;;;18.63;9.65;;;;;;;12.31;100.00;100375.59;4921332;29;20031;-88
2023/08/30 07:56:15;;;;;;;17.90;9.43;;;;;;;12.33;100.00;100378.09;4938201;29;20488;-88
2023/08/30 07:58:42;;;;;;;17.15;9.10;;;;;;;12.37;100.00;100360.22;4921448;29;20051;-89
2023/08/30 08:01:08;;;;;;;16.10;8.90;;;;;;;12.38;100.00;100370.06;4921596;29;20126;-88
2023/08/30 08:03:36;;;;;;;15.93;8.20;;;;;;;12.37;100.00;100373.81;4920735;29;20079;-88
2023/08/30 08:06:03;;;;;;;16.17;8.80;;;;;;;12.40;100.00;100366.03;4889758;29;20547;-90
2023/08/30 08:08:32;;;;;;;14.07;8.70;;;;;;;12.40;100.00;100368.75;4937661;29;20036;-88
2023/08/30 08:10:59;;;;;;;16.83;9.25;;;;;;;12.41;100.00;100375.81;4936139;29;20039;-88
2023/08/30 08:13:24;;;;;;;14.20;7.95;;;;;;;12.40;100.00;100381.50;4937885;29;20059;-88
2023/08/30 08:15:50;;;;;;;13.13;8.17;;;;;;;12.37;100.00;100376.53;4936885;29;20075;-89
2023/08/30 08:18:15;;;;;;;13.53;8.77;;;;;;;12.35;100.00;100371.34;4921147;29;20028;-88
2023/08/30 08:20:41;;;;;;;15.13;9.25;;;;;;;12.42;100.00;100373.94;4936881;29;20034;-89
2023/08/30 08:23:07;;;;;;;18.40;9.87;;;;;;;12.42;100.00;100382.94;4936779;29;20035;-89
2023/08/30 08:25:34;;;;;;;15.37;8.43;;;;;;;12.41;100.00;100384.00;4920328;29;20040;-89
2023/08/30 08:28:05;;;;;;;15.27;8.50;;;;;;;12.46;100.00;100380.56;4920809;29;20024;-89
2023/08/30 08:30:33;;;;;;;15.52;8.13;;;;;;;12.49;100.00;100374.66;4905482;29;20107;-89
2023/08/30 08:33:00;;;;;;;15.68;8.52;;;;;;;12.50;100.00;100375.47;4905601;29;20044;-89
2023/08/30 08:35:26;;;;;;;15.82;8.23;;;;;;;12.53;100.00;100370.38;4937569;29;20050;-88
2023/08/30 08:37:51;;;;;;;14.40;8.67;;;;;;;12.57;100.00;100376.16;4920816;29;20031;-88
2023/08/30 08:40:17;;;;;;;11.33;7.30;;;;;;;12.59;100.00;100368.56;4937814;29;20020;-89
2023/08/30 08:42:43;;;;;;;14.32;7.97;;;;;;;12.60;100.00;100368.34;4919463;29;20038;-89
2023/08/30 08:45:11;;;;;;;13.40;8.10;;;;;;;12.64;100.00;100380.41;4920321;29;20494;-88
2023/08/30 08:47:38;;;;;;;13.60;7.73;;;;;;;12.66;100.00;100365.75;4920827;29;20279;-88
2023/08/30 08:50:04;;;;;;;16.98;7.28;;;;;;;12.68;100.00;100371.75;4920273;29;20086;-88
2023/08/30 08:52:32;;;;;;;11.50;7.07;;;;;;;12.69;100.00;100374.22;4937299;29;20388;-88
2023/08/30 08:55:02;;;;;;;12.05;6.50;;;;;;;12.68;100.00;100379.91;4937808;29;20066;-88
2023/08/30 08:57:31;;;;;;;10.73;6.93;;;;;;;12.70;100.00;100362.28;4937535;29;20059;-88
2023/08/30 08:59:57;;;;;;;13.85;7.45;;;;;;;12.79;100.00;100377.16;4920542;29;20042;-88
2023/08/30 09:02:23;;;;;;;11.20;7.32;;;;;;;12.90;100.00;100369.19;4920048;29;20060;-88
2023/08/30 09:04:49;;;;;;;15.17;7.90;;;;;;;12.98;100.00;100375.09;4937618;29;20040;-88
2023/08/30 09:07:18;;;;;;;11.68;6.65;;;;;;;12.99;100.00;100368.56;4920426;29;20384;-89
2023/08/30 09:09:43;;;;;;;12.43;7.45;;;;;;;13.12;100.00;100382.97;4920158;29;20050;-88
2023/08/30 09:12:09;;;;;;;11.80;7.47;;;;;;;13.16;100.00;100390.41;4920254;29;20413;-88
2023/08/30 09:14:44;;;;;;;;;;;;;;;;;;;;;
2023/08/30 09:17:12;;;;;;;13.80;7.43;;;;;;;13.56;100.00;100368.78;4937502;29;20035;-88
2023/08/30 09:19:38;;;;;;;12.27;7.82;;;;;;;13.69;100.00;100360.28;4935659;29;20031;-88
2023/08/30 09:22:03;;;;;;;14.63;7.93;;;;;;;13.64;100.00;100368.38;4920049;29;20557;-88
2023/08/30 09:24:39;;;;;;;14.73;8.00;;;;;;;13.61;100.00;100363.41;4936603;29;20127;-89
2023/08/30 09:27:05;;;;;;;11.37;7.17;;;;;;;13.71;100.00;100374.47;4936213;29;20775;-90
2023/08/30 09:29:31;;;;;;;12.48;7.75;;;;;;;13.76;100.00;100366.41;4904326;29;20044;-88
2023/08/30 09:32:00;;;;;;;12.88;7.93;;;;;;;13.82;100.00;100375.50;4936848;29;20106;-88
2023/08/30 09:34:26;;;;;;;10.27;7.78;;;;;;;13.99;100.00;100370.00;4936824;29;20059;-89
2023/08/30 09:36:55;;;;;;;10.60;7.93;;;;;;;14.04;100.00;100370.09;4904278;29;20074;-88
2023/08/30 09:39:20;;;;;;;13.65;8.52;;;;;;;14.27;100.00;100373.69;4918905;29;20126;-88
2023/08/30 09:41:50;;;;;;;11.07;8.25;;;;;;;14.28;100.00;100372.63;4904989;29;20119;-90
2023/08/30 09:44:20;;;;;;;12.03;7.30;;;;;;;14.23;100.00;100378.81;4919165;29;20373;-88
2023/08/30 09:46:56;;;;;;;10.43;7.30;;;;;;;14.17;100.00;100372.47;4934178;29;20040;-88
2023/08/30 09:49:26;;;;;;;11.73;7.63;;;;;;;14.37;100.00;100376.56;4918423;29;20481;-88
2023/08/30 09:51:53;;;;;;;11.23;8.25;;;;;;;14.44;100.00;100369.00;4919177;29;20043;-88
2023/08/30 09:54:23;;;;;;;11.55;8.35;;;;;;;14.60;100.00;100369.19;4918853;29;20042;-88
2023/08/30 09:56:52;;;;;;;10.10;7.90;;;;;;;14.70;100.00;100361.16;4934368;29;20357;-88
2023/08/30 09:59:18;;;;;;;9.93;8.35;;;;;;;14.88;100.00;100369.03;4919237;29;20020;-88
2023/08/30 10:01:47;;;;;;;12.85;9.30;;;;;;;15.10;100.00;100365.44;4935388;29;20531;-87
2023/08/30 10:04:14;;;;;;;13.05;8.93;;;;;;;15.39;100.00;100357.78;4918881;29;20519;-89
2023/08/30 10:06:40;;;;;;;9.25;7.45;;;;;;;15.43;100.00;100355.38;4903781;29;20377;-89
2023/08/30 10:09:07;;;;;;;8.60;7.20;;;;;;;15.52;100.00;100344.78;4934628;29;20031;-88
2023/08/30 10:11:37;;;;;;;8.25;7.32;;;;;;;15.51;100.00;100351.34;4903269;29;20040;-88
2023/08/30 10:14:04;;;;;;;8.32;7.45;;;;;;;15.46;100.00;100348.53;4919012;29;20087;-88
2023/08/30 10:16:51;;;;;;;14.43;8.05;;;;;;;15.57;100.00;100350.28;4919605;29;20490;-89
2023/08/30 10:19:32;;;;;;;8.17;7.33;;;;;;;15.64;100.00;100341.88;4915088;29;20052;-89
2023/08/30 10:22:08;;;;;;;9.48;8.25;;;;;;;15.71;100.00;100337.00;4898914;29;20024;-89
2023/08/30 10:24:44;;;;;;;9.43;8.13;;;;;;;15.98;100.00;100338.88;4898825;29;20055;-89
2023/08/30 10:27:11;;;;;;;10.70;7.93;;;;;;;16.13;100.00;100334.28;4914489;29;20032;-89
2023/08/30 10:29:38;;;;;;;9.65;8.38;;;;;;;16.25;100.00;100345.03;4899585;29;20044;-89
2023/08/30 10:32:05;;;;;;;10.23;8.17;;;;;;;16.36;100.00;100337.72;4898989;29;20032;-88
2023/08/30 10:34:34;;;;;;;8.60;7.68;;;;;;;16.70;100.00;100329.06;4883571;29;20440;-89
2023/08/30 10:37:01;;;;;;;8.27;6.90;;;;;;;16.95;100.00;100325.63;4899222;29;20060;-89
2023/08/30 10:39:40;;;;;;;8.90;7.60;;;;;;;17.00;100.00;100349.47;4914707;29;20594;-90
2023/08/30 10:42:19;;;;;;;9.35;7.15;;;;;;;17.19;100.00;100336.06;4914932;29;20040;-92
2023/08/30 10:45:00;;;;;;;8.17;7.03;;;;;;;17.31;100.00;100339.34;4899095;29;20044;-90
2023/08/30 10:47:30;;;;;;;6.70;5.72;;;;;;;17.54;100.00;100329.78;4899208;29;20106;-90
2023/08/30 10:49:59;;;;;;;6.03;5.43;;;;;;;17.56;100.00;100339.66;4906666;29;20052;-90
2023/08/30 10:52:32;;;;;;;6.47;5.55;;;;;;;17.51;100.00;100335.81;4934884;29;20036;-89
2023/08/30 10:55:11;;;;;;;6.00;5.45;;;;;;;17.53;100.00;100332.81;4935976;29;20042;-90
2023/08/30 10:57:44;;;;;;;7.33;5.43;;;;;;;17.97;100.00;100334.16;4919040;29;20086;-90
2023/08/30 11:00:19;;;;;;;6.30;5.10;;;;;;;17.93;100.00;100339.38;4935663;29;20090;-89
2023/08/30 11:02:46;;;;;;;6.07;4.70;;;;;;;17.95;100.00;100330.84;4935704;29;20058;-90
2023/08/30 11:05:15;;;;;;;7.22;4.93;;;;;;;17.87;100.00;100335.78;4919240;29;20422;-89
2023/08/30 11:07:40;;;;;;;6.35;4.55;;;;;;;17.71;100.00;100324.00;4938785;29;20093;-89
2023/08/30 11:10:08;;;;;;;6.43;4.10;;;;;;;17.83;100.00;100317.41;4937758;29;20063;-89
2023/08/30 11:12:35;;;;;;;5.53;3.65;;;;;;;17.93;100.00;100320.16;4922038;29;20020;-90
2023/08/30 11:15:06;;;;;;;4.93;3.73;;;;;;;18.52;100.00;100315.84;4937778;29;20067;-89
2023/08/30 11:17:34;;;;;;;4.10;3.40;;;;;;;19.62;99.59;100314.88;4937894;29;20031;-90
2023/08/30 11:20:13;;;;;;;4.70;3.08;;;;;;;21.24;88.54;100328.09;4937835;29;20033;-89